Time;durP1;ratioP1;P1;durP2;ratioP2;P2;SDS_P1;SDS_P2;PMS_P1;PMS_P2;Temp;Humidity;BMP_temperature;BMP_pressure;BME280_temperature;BME280_humidity;BME280_pressure;Samples;Min_cycle;Max_cycle;Signal;HPM_P1;HPM_P2
2023/03/12 00:02:04;;;;;;;;;;;;;;;;;;5054371;28;19909;-24
2023/03/12 00:04:30;;;;;;;;;;;;;;;;;;5054236;28;19999;-24
2023/03/12 00:06:56;;;;;;;;;;;;;;;;;;5053446;28;19972;-24
2023/03/12 00:09:22;;;;;;;;;;;;;;;;;;5054635;28;19913;-23
2023/03/12 00:11:48;;;;;;;;;;;;;;;;;;5054351;28;19909;-23
2023/03/12 00:14:14;;;;;;;;;;;;;;;;;;5054335;28;20011;-24
2023/03/12 00:16:40;;;;;;;;;;;;;;;;;;5054290;28;19921;-23
2023/03/12 00:19:06;;;;;;;;;;;;;;;;;;5054585;28;19909;-24
2023/03/12 00:21:32;;;;;;;;;;;;;;;;;;5054212;28;19913;-23
2023/03/12 00:23:58;;;;;;;;;;;;;;;;;;5054448;28;19909;-23
2023/03/12 00:26:24;;;;;;;;;;;;;;;;;;5054277;28;19909;-23
2023/03/12 00:28:50;;;;;;;;;;;;;;;;;;5054485;28;19919;-24
2023/03/12 00:31:16;;;;;;;;;;;;;;;;;;5053172;28;19909;-23
2023/03/12 00:33:42;;;;;;;;;;;;;;;;;;5054140;28;19974;-23
2023/03/12 00:36:08;;;;;;;;;;;;;;;;;;5054154;28;19916;-24
2023/03/12 00:38:34;;;;;;;;;;;;;;;;;;5054096;28;19920;-24
2023/03/12 00:41:00;;;;;;;;;;;;;;;;;;5054053;28;20259;-23
2023/03/12 00:43:26;;;;;;;;;;;;;;;;;;5054267;28;19909;-23
2023/03/12 00:45:51;;;;;;;;;;;;;;;;;;5054058;28;19999;-23
2023/03/12 00:48:17;;;;;;;;;;;;;;;;;;5054312;28;19919;-23
2023/03/12 00:50:43;;;;;;;;;;;;;;;;;;5054262;28;19909;-23
2023/03/12 00:53:09;;;;;;;;;;;;;;;;;;5053874;28;19925;-23
2023/03/12 00:55:35;;;;;;;;;;;;;;;;;;5052970;28;19935;-24
2023/03/12 00:58:01;;;;;;;;;;;;;;;;;;5054144;28;19913;-23
2023/03/12 01:00:27;;;;;;;;;;;;;;;;;;5053904;28;20267;-23
2023/03/12 01:02:53;;;;;;;;;;;;;;;;;;5056814;28;19951;-24
2023/03/12 01:05:19;;;;;;;;;;;;;;;;;;5057412;28;19920;-23
2023/03/12 01:07:45;;;;;;;;;;;;;;;;;;5057562;28;19936;-23
2023/03/12 01:10:11;;;;;;;;;;;;;;;;;;5057415;28;19924;-24
2023/03/12 01:12:37;;;;;;;;;;;;;;;;;;5057368;28;19909;-24
2023/03/12 01:15:03;;;;;;;;;;;;;;;;;;5057687;28;19909;-24
2023/03/12 01:17:29;;;;;;;;;;;;;;;;;;5056347;28;19909;-23
2023/03/12 01:19:55;;;;;;;;;;;;;;;;;;5057507;28;19913;-23
2023/03/12 01:22:21;;;;;;;;;;;;;;;;;;5057243;28;19916;-25
2023/03/12 01:24:47;;;;;;;;;;;;;;;;;;5057291;28;19999;-34
2023/03/12 01:27:13;;;;;;;;;;;;;;;;;;5057500;28;19975;-26
2023/03/12 01:29:39;;;;;;;;;;;;;;;;;;5057167;28;19970;-25
2023/03/12 01:32:05;;;;;;;;;;;;;;;;;;5057114;28;19916;-26
2023/03/12 01:34:32;;;;;;;;;;;;;;;;;;5057099;28;20268;-32
2023/03/12 01:36:58;;;;;;;;;;;;;;;;;;5056996;28;19909;-27
2023/03/12 01:39:24;;;;;;;;;;;;;;;;;;5056933;28;19932;-28
2023/03/12 01:41:50;;;;;;;;;;;;;;;;;;5057187;28;19908;-31
2023/03/12 01:44:16;;;;;;;;;;;;;;;;;;5056844;28;19970;-25
2023/03/12 01:46:42;;;;;;;;;;;;;;;;;;5056838;28;20340;-24
2023/03/12 01:49:08;;;;;;;;;;;;;;;;;;5057018;28;20029;-25
2023/03/12 01:51:34;;;;;;;;;;;;;;;;;;5055786;28;19920;-28
2023/03/12 01:54:00;;;;;;;;;;;;;;;;;;5056700;28;19920;-24
2023/03/12 01:56:26;;;;;;;;;;;;;;;;;;5056679;28;19909;-26
2023/03/12 01:58:52;;;;;;;;;;;;;;;;;;5056661;28;19970;-30
2023/03/12 02:01:18;;;;;;;;;;;;;;;;;;5056603;28;20256;-32
2023/03/12 02:03:44;;;;;;;;;;;;;;;;;;5055485;28;19909;-26
2023/03/12 02:06:10;;;;;;;;;;;;;;;;;;5056359;28;19999;-23
2023/03/12 02:08:36;;;;;;;;;;;;;;;;;;5056401;28;19971;-27
2023/03/12 02:11:02;;;;;;;;;;;;;;;;;;5056399;28;19920;-27
2023/03/12 02:13:28;;;;;;;;;;;;;;;;;;5055310;28;19981;-23
2023/03/12 02:15:54;;;;;;;;;;;;;;;;;;5056265;28;19957;-25
2023/03/12 02:18:20;;;;;;;;;;;;;;;;;;5056324;28;19915;-27
2023/03/12 02:20:46;;;;;;;;;;;;;;;;;;5056433;28;20286;-26
2023/03/12 02:23:12;;;;;;;;;;;;;;;;;;5056144;28;19916;-24
2023/03/12 02:25:38;;;;;;;;;;;;;;;;;;5056423;28;19921;-28
2023/03/12 02:28:04;;;;;;;;;;;;;;;;;;5056089;28;19908;-25
2023/03/12 02:30:30;;;;;;;;;;;;;;;;;;5056045;28;19999;-26
2023/03/12 02:32:56;;;;;;;;;;;;;;;;;;5055007;28;20284;-25
2023/03/12 02:35:22;;;;;;;;;;;;;;;;;;5056187;28;20012;-26
2023/03/12 02:37:48;;;;;;;;;;;;;;;;;;5055874;28;19909;-27
2023/03/12 02:40:14;;;;;;;;;;;;;;;;;;5054748;28;19924;-31
2023/03/12 02:42:40;;;;;;;;;;;;;;;;;;5054700;28;19908;-27
2023/03/12 02:45:06;;;;;;;;;;;;;;;;;;5055791;28;19909;-23
2023/03/12 02:47:32;;;;;;;;;;;;;;;;;;5055933;28;19913;-27
2023/03/12 02:49:58;;;;;;;;;;;;;;;;;;5055669;28;20278;-32
2023/03/12 02:52:24;;;;;;;;;;;;;;;;;;5055551;28;19919;-26
2023/03/12 02:54:50;;;;;;;;;;;;;;;;;;5055533;28;19913;-22
2023/03/12 02:57:16;;;;;;;;;;;;;;;;;;5055762;28;19944;-28
2023/03/12 02:59:42;;;;;;;;;;;;;;;;;;5055464;28;19924;-29
2023/03/12 03:02:08;;;;;;;;;;;;;;;;;;5055551;28;19908;-26
2023/03/12 03:04:34;;;;;;;;;;;;;;;;;;5055418;28;19909;-27
2023/03/12 03:07:00;;;;;;;;;;;;;;;;;;5055652;28;19909;-30
2023/03/12 03:09:26;;;;;;;;;;;;;;;;;;5055317;28;20340;-25
2023/03/12 03:11:52;;;;;;;;;;;;;;;;;;5055252;28;20253;-22
2023/03/12 03:14:18;;;;;;;;;;;;;;;;;;5055241;28;19909;-24
2023/03/12 03:16:44;;;;;;;;;;;;;;;;;;5055235;28;20260;-25
2023/03/12 03:19:10;;;;;;;;;;;;;;;;;;5055161;28;20015;-32
2023/03/12 03:21:36;;;;;;;;;;;;;;;;;;5055022;28;19920;-27
2023/03/12 03:24:02;;;;;;;;;;;;;;;;;;5053803;28;20251;-25
2023/03/12 03:26:28;;;;;;;;;;;;;;;;;;5053948;28;19955;-25
2023/03/12 03:28:54;;;;;;;;;;;;;;;;;;5054930;28;19913;-23
2023/03/12 03:31:20;;;;;;;;;;;;;;;;;;5055141;28;19919;-25
2023/03/12 03:33:46;;;;;;;;;;;;;;;;;;5054765;28;19963;-30
2023/03/12 03:36:15;;;;;;;;;;;;;;;;;;5053897;28;19916;-25
2023/03/12 03:38:41;;;;;;;;;;;;;;;;;;5054773;28;19913;-28
2023/03/12 03:41:07;;;;;;;;;;;;;;;;;;5054989;28;19917;-22
2023/03/12 03:43:33;;;;;;;;;;;;;;;;;;5054730;28;19909;-25
2023/03/12 03:45:59;;;;;;;;;;;;;;;;;;5054730;28;20003;-27
2023/03/12 03:48:25;;;;;;;;;;;;;;;;;;5054955;28;19913;-26
2023/03/12 03:50:51;;;;;;;;;;;;;;;;;;5054703;28;19913;-31
2023/03/12 03:53:20;;;;;;;;;;;;;;;;;;5054833;28;20327;-30
2023/03/12 03:55:46;;;;;;;;;;;;;;;;;;5054646;28;20306;-26
2023/03/12 03:58:12;;;;;;;;;;;;;;;;;;5054626;28;19909;-25
2023/03/12 04:00:38;;;;;;;;;;;;;;;;;;5054481;28;19913;-26
2023/03/12 04:03:04;;;;;;;;;;;;;;;;;;5054510;28;19978;-23
2023/03/12 04:05:30;;;;;;;;;;;;;;;;;;5054421;28;19921;-29
2023/03/12 04:08:01;;;;;;;;;;;;;;;;;;5054479;28;20308;-27
2023/03/12 04:10:27;;;;;;;;;;;;;;;;;;5054528;28;19995;-27
2023/03/12 04:12:53;;;;;;;;;;;;;;;;;;5054428;28;19954;-25
2023/03/12 04:15:19;;;;;;;;;;;;;;;;;;5054380;28;19917;-23
2023/03/12 04:17:45;;;;;;;;;;;;;;;;;;5054401;28;19916;-25
2023/03/12 04:20:11;;;;;;;;;;;;;;;;;;5054510;28;20319;-23
2023/03/12 04:22:37;;;;;;;;;;;;;;;;;;5054998;28;19983;-25
2023/03/12 04:25:03;;;;;;;;;;;;;;;;;;5054388;28;19909;-23
2023/03/12 04:27:29;;;;;;;;;;;;;;;;;;5054244;28;19909;-29
2023/03/12 04:29:55;;;;;;;;;;;;;;;;;;5054565;28;19909;-32
2023/03/12 04:32:21;;;;;;;;;;;;;;;;;;5054194;28;19912;-25
2023/03/12 04:34:47;;;;;;;;;;;;;;;;;;5054259;28;19909;-27
2023/03/12 04:37:13;;;;;;;;;;;;;;;;;;5056468;28;19920;-26
2023/03/12 04:39:39;;;;;;;;;;;;;;;;;;5058276;28;20015;-22
2023/03/12 04:42:05;;;;;;;;;;;;;;;;;;5058025;28;20351;-25
2023/03/12 04:44:31;;;;;;;;;;;;;;;;;;5058012;28;19923;-30
2023/03/12 04:46:57;;;;;;;;;;;;;;;;;;5058003;28;19909;-29
2023/03/12 04:49:23;;;;;;;;;;;;;;;;;;5058235;28;19909;-27
2023/03/12 04:51:49;;;;;;;;;;;;;;;;;;5057875;28;20370;-24
2023/03/12 04:54:15;;;;;;;;;;;;;;;;;;5057953;28;19909;-24
2023/03/12 04:56:41;;;;;;;;;;;;;;;;;;5057768;28;20003;-23
2023/03/12 04:59:07;;;;;;;;;;;;;;;;;;5058020;28;19999;-29
2023/03/12 05:01:33;;;;;;;;;;;;;;;;;;5057635;28;19913;-26
2023/03/12 05:03:59;;;;;;;;;;;;;;;;;;5056571;28;19909;-29
2023/03/12 05:06:25;;;;;;;;;;;;;;;;;;5057475;28;20310;-24
2023/03/12 05:08:51;;;;;;;;;;;;;;;;;;5057505;28;19917;-23
2023/03/12 05:11:17;;;;;;;;;;;;;;;;;;5057538;28;19963;-27
2023/03/12 05:13:43;;;;;;;;;;;;;;;;;;5057482;28;19919;-25
2023/03/12 05:16:09;;;;;;;;;;;;;;;;;;5057755;28;19909;-29
2023/03/12 05:18:35;;;;;;;;;;;;;;;;;;5057413;28;19915;-24
2023/03/12 05:21:01;;;;;;;;;;;;;;;;;;5057547;28;19913;-27
2023/03/12 05:23:27;;;;;;;;;;;;;;;;;;5057259;28;19913;-26
2023/03/12 05:25:53;;;;;;;;;;;;;;;;;;5057471;28;19909;-23
2023/03/12 05:28:19;;;;;;;;;;;;;;;;;;5057242;28;19909;-27
2023/03/12 05:30:45;;;;;;;;;;;;;;;;;;5057457;28;19909;-27
2023/03/12 05:33:11;;;;;;;;;;;;;;;;;;5057037;28;19929;-29
2023/03/12 05:35:37;;;;;;;;;;;;;;;;;;5057069;28;19999;-23
2023/03/12 05:38:03;;;;;;;;;;;;;;;;;;5057050;28;19909;-25
2023/03/12 05:40:29;;;;;;;;;;;;;;;;;;5056938;28;19913;-25
2023/03/12 05:42:55;;;;;;;;;;;;;;;;;;5056896;28;19924;-27
2023/03/12 05:45:21;;;;;;;;;;;;;;;;;;5056945;28;19920;-25
2023/03/12 05:47:47;;;;;;;;;;;;;;;;;;5056867;28;19908;-29
2023/03/12 05:50:15;;;;;;;;;;;;;;;;;;5057142;28;19931;-30
2023/03/12 05:52:41;;;;;;;;;;;;;;;;;;5056993;28;19963;-25
2023/03/12 05:55:07;;;;;;;;;;;;;;;;;;5056992;28;19909;-26
2023/03/12 05:57:33;;;;;;;;;;;;;;;;;;5056611;28;19919;-28
2023/03/12 05:59:59;;;;;;;;;;;;;;;;;;5056801;28;20015;-24
2023/03/12 06:02:25;;;;;;;;;;;;;;;;;;5056736;28;19908;-25
2023/03/12 06:04:50;;;;;;;;;;;;;;;;;;5056339;28;19924;-26
2023/03/12 06:07:16;;;;;;;;;;;;;;;;;;5056530;28;19919;-23
2023/03/12 06:09:42;;;;;;;;;;;;;;;;;;5056531;28;19908;-25
2023/03/12 06:12:08;;;;;;;;;;;;;;;;;;5056621;28;19916;-27
2023/03/12 06:14:34;;;;;;;;;;;;;;;;;;5056431;28;20306;-25
2023/03/12 06:17:00;;;;;;;;;;;;;;;;;;5055299;28;19909;-26
2023/03/12 06:19:26;;;;;;;;;;;;;;;;;;5055695;28;19967;-25
2023/03/12 06:21:52;;;;;;;;;;;;;;;;;;5056088;28;20318;-24
2023/03/12 06:24:18;;;;;;;;;;;;;;;;;;5056157;28;20246;-24
2023/03/12 06:26:44;;;;;;;;;;;;;;;;;;5056201;28;19909;-24
2023/03/12 06:29:10;;;;;;;;;;;;;;;;;;5056077;28;20004;-26
2023/03/12 06:31:38;;;;;;;;;;;;;;;;;;5055020;28;19909;-24
2023/03/12 06:34:04;;;;;;;;;;;;;;;;;;5056208;28;20244;-24
2023/03/12 06:36:30;;;;;;;;;;;;;;;;;;5056223;28;19909;-22
2023/03/12 06:38:56;;;;;;;;;;;;;;;;;;5056176;28;20255;-28
2023/03/12 06:41:22;;;;;;;;;;;;;;;;;;5056034;28;19947;-23
2023/03/12 06:43:48;;;;;;;;;;;;;;;;;;5056023;28;19927;-26
2023/03/12 06:46:14;;;;;;;;;;;;;;;;;;5055762;28;19920;-24
2023/03/12 06:48:40;;;;;;;;;;;;;;;;;;5055639;28;19913;-26
2023/03/12 06:51:06;;;;;;;;;;;;;;;;;;5055673;28;19978;-25
2023/03/12 06:53:32;;;;;;;;;;;;;;;;;;5055821;28;20302;-24
2023/03/12 06:55:58;;;;;;;;;;;;;;;;;;5055543;28;19908;-24
2023/03/12 06:58:24;;;;;;;;;;;;;;;;;;5055549;28;19909;-25
2023/03/12 07:00:50;;;;;;;;;;;;;;;;;;5055170;28;20016;-25
2023/03/12 07:03:16;;;;;;;;;;;;;;;;;;5054393;28;20229;-26
2023/03/12 07:05:42;;;;;;;;;;;;;;;;;;5055252;28;19921;-26
2023/03/12 07:08:08;;;;;;;;;;;;;;;;;;5055301;28;20046;-26
2023/03/12 07:10:34;;;;;;;;;;;;;;;;;;5055305;28;19920;-30
2023/03/12 07:13:00;;;;;;;;;;;;;;;;;;5055214;28;20384;-23
2023/03/12 07:15:26;;;;;;;;;;;;;;;;;;5055172;28;19909;-24
2023/03/12 07:17:52;;;;;;;;;;;;;;;;;;5055161;28;19970;-26
2023/03/12 07:20:18;;;;;;;;;;;;;;;;;;5055310;28;19913;-25
2023/03/12 07:22:44;;;;;;;;;;;;;;;;;;5055308;28;19919;-26
2023/03/12 07:25:10;;;;;;;;;;;;;;;;;;5055089;28;20366;-24
2023/03/12 07:27:36;;;;;;;;;;;;;;;;;;5055295;28;19909;-28
2023/03/12 07:30:02;;;;;;;;;;;;;;;;;;5054982;28;20291;-24
2023/03/12 07:32:28;;;;;;;;;;;;;;;;;;5054878;28;19959;-25
2023/03/12 07:34:54;;;;;;;;;;;;;;;;;;5054896;28;19915;-26
2023/03/12 07:37:19;;;;;;;;;;;;;;;;;;5055151;28;19909;-26
2023/03/12 07:39:50;;;;;;;;;;;;;;;;;;5054849;28;20293;-25
2023/03/12 07:42:15;;;;;;;;;;;;;;;;;;5054722;28;20399;-25
2023/03/12 07:44:41;;;;;;;;;;;;;;;;;;5055090;28;20010;-24
2023/03/12 07:47:07;;;;;;;;;;;;;;;;;;5053764;28;19916;-23
2023/03/12 07:49:33;;;;;;;;;;;;;;;;;;5054737;28;20477;-29
2023/03/12 07:51:59;;;;;;;;;;;;;;;;;;5054870;28;19935;-26
2023/03/12 07:54:29;;;;;;;;;;;;;;;;;;5054655;28;20347;-27
2023/03/12 07:56:55;;;;;;;;;;;;;;;;;;5054865;28;20302;-27
2023/03/12 07:59:21;;;;;;;;;;;;;;;;;;5054831;28;19912;-27
2023/03/12 08:01:47;;;;;;;;;;;;;;;;;;5054500;28;19967;-26
2023/03/12 08:04:13;;;;;;;;;;;;;;;;;;5054499;28;19909;-26
2023/03/12 08:06:41;;;;;;;;;;;;;;;;;;5054341;28;19975;-25
2023/03/12 08:09:07;;;;;;;;;;;;;;;;;;5054507;28;19962;-25
2023/03/12 08:11:33;;;;;;;;;;;;;;;;;;5055415;28;19913;-25
2023/03/12 08:13:59;;;;;;;;;;;;;;;;;;5058793;28;20351;-27
2023/03/12 08:16:25;;;;;;;;;;;;;;;;;;5058652;28;20244;-24
2023/03/12 08:18:51;;;;;;;;;;;;;;;;;;5058592;28;20066;-24
2023/03/12 08:21:17;;;;;;;;;;;;;;;;;;5059738;28;19924;-30
2023/03/12 08:23:43;;;;;;;;;;;;;;;;;;5058452;28;19917;-26
2023/03/12 08:26:09;;;;;;;;;;;;;;;;;;5058416;28;19935;-25
2023/03/12 08:28:35;;;;;;;;;;;;;;;;;;5058345;28;19913;-28
2023/03/12 08:31:01;;;;;;;;;;;;;;;;;;5058334;28;19917;-27
2023/03/12 08:33:27;;;;;;;;;;;;;;;;;;5058275;28;19919;-28
2023/03/12 08:35:53;;;;;;;;;;;;;;;;;;5058241;28;20247;-24
2023/03/12 08:38:19;;;;;;;;;;;;;;;;;;5058199;28;19909;-28
2023/03/12 08:40:45;;;;;;;;;;;;;;;;;;5058069;28;19913;-24
2023/03/12 08:43:11;;;;;;;;;;;;;;;;;;5058305;28;19931;-29
2023/03/12 08:45:37;;;;;;;;;;;;;;;;;;5058077;28;19982;-29
2023/03/12 08:48:03;;;;;;;;;;;;;;;;;;5058031;28;19917;-24
2023/03/12 08:50:30;;;;;;;;;;;;;;;;;;5057943;28;19915;-29
2023/03/12 08:52:56;;;;;;;;;;;;;;;;;;5057827;28;20026;-23
2023/03/12 08:55:22;;;;;;;;;;;;;;;;;;5057949;28;19917;-27
2023/03/12 08:57:48;;;;;;;;;;;;;;;;;;5057819;28;19909;-26
2023/03/12 09:00:16;;;;;;;;;;;;;;;;;;5057737;28;19913;-28
2023/03/12 09:02:42;;;;;;;;;;;;;;;;;;5057663;28;19915;-26
2023/03/12 09:05:08;;;;;;;;;;;;;;;;;;5057509;28;19975;-24
2023/03/12 09:07:34;;;;;;;;;;;;;;;;;;5057653;28;19916;-29
2023/03/12 09:10:00;;;;;;;;;;;;;;;;;;5057601;28;19916;-26
2023/03/12 09:12:26;;;;;;;;;;;;;;;;;;5057443;28;19969;-26
2023/03/12 09:14:52;;;;;;;;;;;;;;;;;;5056519;28;19913;-25
2023/03/12 09:17:18;;;;;;;;;;;;;;;;;;5057660;28;19999;-22
2023/03/12 09:19:44;;;;;;;;;;;;;;;;;;5057341;28;19974;-35
2023/03/12 09:22:10;;;;;;;;;;;;;;;;;;5056915;28;19969;-28
2023/03/12 09:24:36;;;;;;;;;;;;;;;;;;5057354;28;20225;-25
2023/03/12 09:27:03;;;;;;;;;;;;;;;;;;5057284;28;20298;-29
2023/03/12 09:29:29;;;;;;;;;;;;;;;;;;5057559;28;20278;-26
2023/03/12 09:31:55;;;;;;;;;;;;;;;;;;5057160;28;19916;-26
2023/03/12 09:34:21;;;;;;;;;;;;;;;;;;5057169;28;19916;-23
2023/03/12 09:36:47;;;;;;;;;;;;;;;;;;5057381;28;19919;-29
2023/03/12 09:39:13;;;;;;;;;;;;;;;;;;5057098;28;20335;-29
2023/03/12 09:41:39;;;;;;;;;;;;;;;;;;5057510;28;19924;-29
2023/03/12 09:44:05;;;;;;;;;;;;;;;;;;5056895;28;20344;-29
2023/03/12 09:46:31;;;;;;;;;;;;;;;;;;5056971;28;19970;-29
2023/03/12 09:48:57;;;;;;;;;;;;;;;;;;5057147;28;19916;-29
2023/03/12 09:51:22;;;;;;;;;;;;;;;;;;5056853;28;19962;-27
2023/03/12 09:53:48;;;;;;;;;;;;;;;;;;5056735;28;19916;-29
2023/03/12 09:56:15;;;;;;;;;;;;;;;;;;5056690;28;19974;-30
2023/03/12 09:58:43;;;;;;;;;;;;;;;;;;5056621;28;19913;-27
2023/03/12 10:01:09;;;;;;;;;;;;;;;;;;5056777;28;20058;-30
2023/03/12 10:03:35;;;;;;;;;;;;;;;;;;5055535;28;19959;-27
2023/03/12 10:06:02;;;;;;;;;;;;;;;;;;5056364;28;19921;-26
2023/03/12 10:08:28;;;;;;;;;;;;;;;;;;5056536;28;19985;-24
2023/03/12 10:10:54;;;;;;;;;;;;;;;;;;5056536;28;20471;-24
2023/03/12 10:13:20;;;;;;;;;;;;;;;;;;5056416;28;19913;-33
2023/03/12 10:15:46;;;;;;;;;;;;;;;;;;5056429;28;19909;-28
2023/03/12 10:18:12;;;;;;;;;;;;;;;;;;5056312;28;19913;-27
2023/03/12 10:20:38;;;;;;;;;;;;;;;;;;5056477;28;20011;-27
2023/03/12 10:23:04;;;;;;;;;;;;;;;;;;5056087;28;20336;-25
2023/03/12 10:25:30;;;;;;;;;;;;;;;;;;5056192;28;19916;-27
2023/03/12 10:27:56;;;;;;;;;;;;;;;;;;5056341;28;19908;-27
2023/03/12 10:30:23;;;;;;;;;;;;;;;;;;5056016;28;19919;-31
2023/03/12 10:32:48;;;;;;;;;;;;;;;;;;5056006;28;19909;-28
2023/03/12 10:35:14;;;;;;;;;;;;;;;;;;5055120;28;19919;-25
2023/03/12 10:37:40;;;;;;;;;;;;;;;;;;5055986;28;19909;-30
2023/03/12 10:40:07;;;;;;;;;;;;;;;;;;5055849;28;19913;-27
2023/03/12 10:42:33;;;;;;;;;;;;;;;;;;5056126;28;19909;-26
2023/03/12 10:44:59;;;;;;;;;;;;;;;;;;5055842;28;19919;-26
2023/03/12 10:47:25;;;;;;;;;;;;;;;;;;5056077;28;20076;-28
2023/03/12 10:49:52;;;;;;;;;;;;;;;;;;5055740;28;19956;-27
2023/03/12 10:52:18;;;;;;;;;;;;;;;;;;5055631;28;19909;-25
2023/03/12 10:54:44;;;;;;;;;;;;;;;;;;5055658;28;20003;-29
2023/03/12 10:57:10;;;;;;;;;;;;;;;;;;5055607;28;20335;-23
2023/03/12 10:59:36;;;;;;;;;;;;;;;;;;5055510;28;20007;-27
2023/03/12 11:02:02;;;;;;;;;;;;;;;;;;5055619;28;19928;-26
2023/03/12 11:04:28;;;;;;;;;;;;;;;;;;5055410;28;20313;-31
2023/03/12 11:06:54;;;;;;;;;;;;;;;;;;5055472;28;19916;-26
2023/03/12 11:09:20;;;;;;;;;;;;;;;;;;5055345;28;20255;-23
2023/03/12 11:11:46;;;;;;;;;;;;;;;;;;5055355;28;20367;-25
2023/03/12 11:14:12;;;;;;;;;;;;;;;;;;5055145;28;19920;-23
2023/03/12 11:16:38;;;;;;;;;;;;;;;;;;5055239;28;20003;-23
2023/03/12 11:19:04;;;;;;;;;;;;;;;;;;5055107;28;19967;-24
2023/03/12 11:21:30;;;;;;;;;;;;;;;;;;5055379;28;19923;-23
2023/03/12 11:23:58;;;;;;;;;;;;;;;;;;5054311;28;20202;-23
2023/03/12 11:26:24;;;;;;;;;;;;;;;;;;5055156;28;19957;-25
2023/03/12 11:28:50;;;;;;;;;;;;;;;;;;5055320;28;19912;-26
2023/03/12 11:31:16;;;;;;;;;;;;;;;;;;5055746;28;19908;-24
2023/03/12 11:33:42;;;;;;;;;;;;;;;;;;5053929;28;19975;-25
2023/03/12 11:36:08;;;;;;;;;;;;;;;;;;5055222;28;19970;-26
2023/03/12 11:38:34;;;;;;;;;;;;;;;;;;5053890;28;19908;-23
2023/03/12 11:41:00;;;;;;;;;;;;;;;;;;5053810;28;19913;-26
2023/03/12 11:43:26;;;;;;;;;;;;;;;;;;5054721;28;20283;-26
2023/03/12 11:45:52;;;;;;;;;;;;;;;;;;5054667;28;19913;-26
2023/03/12 11:48:18;;;;;;;;;;;;;;;;;;5054717;28;20012;-27
2023/03/12 11:50:44;;;;;;;;;;;;;;;;;;5054734;28;19908;-26
2023/03/12 11:53:10;;;;;;;;;;;;;;;;;;5053649;28;20370;-28
2023/03/12 11:55:35;;;;;;;;;;;;;;;;;;5054624;28;19928;-28
2023/03/12 11:58:02;;;;;;;;;;;;;;;;;;5054663;28;20054;-25
2023/03/12 12:00:28;;;;;;;;;;;;;;;;;;5054793;28;19963;-28
2023/03/12 12:02:53;;;;;;;;;;;;;;;;;;5054525;28;19935;-25
2023/03/12 12:05:19;;;;;;;;;;;;;;;;;;5054366;28;20006;-24
2023/03/12 12:07:45;;;;;;;;;;;;;;;;;;5054432;28;19916;-26
2023/03/12 12:10:11;;;;;;;;;;;;;;;;;;5054693;28;19919;-24
2023/03/12 12:12:37;;;;;;;;;;;;;;;;;;5054667;28;19920;-23
2023/03/12 12:15:03;;;;;;;;;;;;;;;;;;5054727;28;19915;-25
2023/03/12 12:17:29;;;;;;;;;;;;;;;;;;5054710;28;20347;-26
2023/03/12 12:19:55;;;;;;;;;;;;;;;;;;5054342;28;19920;-24
2023/03/12 12:22:21;;;;;;;;;;;;;;;;;;5054306;28;20067;-25
2023/03/12 12:24:47;;;;;;;;;;;;;;;;;;5054325;28;19996;-24
2023/03/12 12:27:13;;;;;;;;;;;;;;;;;;5054578;28;19908;-27
2023/03/12 12:29:39;;;;;;;;;;;;;;;;;;5054309;28;19909;-23
2023/03/12 12:32:05;;;;;;;;;;;;;;;;;;5054423;28;19909;-25
2023/03/12 12:34:31;;;;;;;;;;;;;;;;;;5054535;28;19909;-23
2023/03/12 12:36:57;;;;;;;;;;;;;;;;;;5054517;28;20279;-23
2023/03/12 12:39:24;;;;;;;;;;;;;;;;;;5054225;28;19908;-29
2023/03/12 12:41:50;;;;;;;;;;;;;;;;;;5054482;28;19913;-28
2023/03/12 12:44:16;;;;;;;;;;;;;;;;;;5054179;28;19909;-29
2023/03/12 12:46:42;;;;;;;;;;;;;;;;;;5054093;28;20233;-26
2023/03/12 12:49:08;;;;;;;;;;;;;;;;;;5054642;28;19909;-28
2023/03/12 12:51:34;;;;;;;;;;;;;;;;;;5054416;28;19905;-26
2023/03/12 12:54:00;;;;;;;;;;;;;;;;;;5054001;28;19963;-25
2023/03/12 12:56:25;;;;;;;;;;;;;;;;;;5054057;28;19991;-25
2023/03/12 12:58:51;;;;;;;;;;;;;;;;;;5056927;28;20348;-26
2023/03/12 13:01:17;;;;;;;;;;;;;;;;;;5058090;28;19924;-25
2023/03/12 13:03:43;;;;;;;;;;;;;;;;;;5057653;28;19919;-24
2023/03/12 13:06:10;;;;;;;;;;;;;;;;;;5057570;28;19921;-23
2023/03/12 13:08:36;;;;;;;;;;;;;;;;;;5057651;28;19919;-24
2023/03/12 13:11:02;;;;;;;;;;;;;;;;;;5057911;28;19912;-25
2023/03/12 13:13:28;;;;;;;;;;;;;;;;;;5057825;28;20250;-29
2023/03/12 13:15:54;;;;;;;;;;;;;;;;;;5057601;28;20404;-27
2023/03/12 13:18:20;;;;;;;;;;;;;;;;;;5057549;28;20310;-25
2023/03/12 13:20:46;;;;;;;;;;;;;;;;;;5057695;28;19913;-25
2023/03/12 13:23:12;;;;;;;;;;;;;;;;;;5057361;28;19923;-25
2023/03/12 13:25:38;;;;;;;;;;;;;;;;;;5057347;28;19909;-26
2023/03/12 13:28:04;;;;;;;;;;;;;;;;;;5057617;28;19909;-27
2023/03/12 13:30:30;;;;;;;;;;;;;;;;;;5057610;28;20248;-25
2023/03/12 13:32:56;;;;;;;;;;;;;;;;;;5057186;28;19908;-24
2023/03/12 13:35:22;;;;;;;;;;;;;;;;;;5057183;28;19913;-26
2023/03/12 13:37:48;;;;;;;;;;;;;;;;;;5057414;28;20332;-29
2023/03/12 13:40:14;;;;;;;;;;;;;;;;;;5057235;28;19912;-29
2023/03/12 13:42:40;;;;;;;;;;;;;;;;;;5056971;28;19909;-26
2023/03/12 13:45:06;;;;;;;;;;;;;;;;;;5056984;28;19909;-25
2023/03/12 13:47:32;;;;;;;;;;;;;;;;;;5056933;28;19909;-27
2023/03/12 13:49:58;;;;;;;;;;;;;;;;;;5057183;28;19909;-27
2023/03/12 13:52:24;;;;;;;;;;;;;;;;;;5056823;28;19909;-27
2023/03/12 13:54:50;;;;;;;;;;;;;;;;;;5057093;28;20301;-28
2023/03/12 13:57:16;;;;;;;;;;;;;;;;;;5056763;28;19916;-22
2023/03/12 13:59:42;;;;;;;;;;;;;;;;;;5056698;28;20003;-26
2023/03/12 14:02:08;;;;;;;;;;;;;;;;;;5056517;28;19913;-25
2023/03/12 14:04:34;;;;;;;;;;;;;;;;;;5055518;28;19909;-23
2023/03/12 14:07:00;;;;;;;;;;;;;;;;;;5056918;28;19912;-24
2023/03/12 14:09:27;;;;;;;;;;;;;;;;;;5054334;28;20306;-31
2023/03/12 14:11:53;;;;;;;;;;;;;;;;;;5056730;28;20251;-27
2023/03/12 14:14:19;;;;;;;;;;;;;;;;;;5056449;28;19909;-28
2023/03/12 14:16:45;;;;;;;;;;;;;;;;;;5056640;28;20288;-27
2023/03/12 14:19:10;;;;;;;;;;;;;;;;;;5056344;28;20300;-25
2023/03/12 14:21:36;;;;;;;;;;;;;;;;;;5056279;28;19913;-28
2023/03/12 14:24:03;;;;;;;;;;;;;;;;;;5056441;28;20415;-24
2023/03/12 14:26:29;;;;;;;;;;;;;;;;;;5056519;28;19970;-29
2023/03/12 14:28:55;;;;;;;;;;;;;;;;;;5056180;28;20391;-24
2023/03/12 14:31:21;;;;;;;;;;;;;;;;;;5056166;28;19909;-22
2023/03/12 14:33:47;;;;;;;;;;;;;;;;;;5056013;28;20053;-22
2023/03/12 14:36:13;;;;;;;;;;;;;;;;;;5056029;28;19915;-24
2023/03/12 14:38:39;;;;;;;;;;;;;;;;;;5056218;28;19919;-26
2023/03/12 14:41:05;;;;;;;;;;;;;;;;;;5056129;28;19913;-23
2023/03/12 14:43:31;;;;;;;;;;;;;;;;;;5055824;28;19919;-28
2023/03/12 14:45:57;;;;;;;;;;;;;;;;;;5055905;28;20344;-23
2023/03/12 14:48:23;;;;;;;;;;;;;;;;;;5055748;28;19934;-30
2023/03/12 14:50:49;;;;;;;;;;;;;;;;;;5055967;28;20003;-27
2023/03/12 14:53:15;;;;;;;;;;;;;;;;;;5055622;28;20004;-27
2023/03/12 14:55:41;;;;;;;;;;;;;;;;;;5056320;28;19920;-29
2023/03/12 14:58:07;;;;;;;;;;;;;;;;;;5055562;28;19916;-26
2023/03/12 15:00:33;;;;;;;;;;;;;;;;;;5055473;28;19974;-26
2023/03/12 15:02:59;;;;;;;;;;;;;;;;;;5055434;28;19909;-26
2023/03/12 15:05:25;;;;;;;;;;;;;;;;;;5055320;28;19921;-23
2023/03/12 15:07:51;;;;;;;;;;;;;;;;;;5055441;28;19909;-26
2023/03/12 15:10:17;;;;;;;;;;;;;;;;;;5055381;28;20066;-27
2023/03/12 15:12:43;;;;;;;;;;;;;;;;;;5055343;28;19920;-22
2023/03/12 15:15:09;;;;;;;;;;;;;;;;;;5055597;28;19958;-23
2023/03/12 15:17:35;;;;;;;;;;;;;;;;;;5055316;28;19916;-24
2023/03/12 15:20:01;;;;;;;;;;;;;;;;;;5055042;28;19916;-26
2023/03/12 15:22:27;;;;;;;;;;;;;;;;;;5055208;28;19909;-29
2023/03/12 15:24:53;;;;;;;;;;;;;;;;;;5055118;28;19908;-27
2023/03/12 15:27:19;;;;;;;;;;;;;;;;;;5055073;28;19917;-23
2023/03/12 15:29:45;;;;;;;;;;;;;;;;;;5054000;28;20328;-26
2023/03/12 15:32:11;;;;;;;;;;;;;;;;;;5054923;28;20302;-26
2023/03/12 15:34:36;;;;;;;;;;;;;;;;;;5054950;28;19913;-24
2023/03/12 15:37:03;;;;;;;;;;;;;;;;;;5054877;28;19913;-26
2023/03/12 15:39:29;;;;;;;;;;;;;;;;;;5054858;28;19908;-28
2023/03/12 15:41:55;;;;;;;;;;;;;;;;;;5054715;28;19923;-31
2023/03/12 15:44:21;;;;;;;;;;;;;;;;;;5055084;28;19963;-26
2023/03/12 15:46:47;;;;;;;;;;;;;;;;;;5055113;28;20236;-25
2023/03/12 15:49:13;;;;;;;;;;;;;;;;;;5054720;28;19971;-23
2023/03/12 15:51:39;;;;;;;;;;;;;;;;;;5053783;28;20239;-27
2023/03/12 15:54:05;;;;;;;;;;;;;;;;;;5054580;28;19995;-24
2023/03/12 15:56:31;;;;;;;;;;;;;;;;;;5054684;28;19959;-29
2023/03/12 15:58:57;;;;;;;;;;;;;;;;;;5054613;28;19959;-26
2023/03/12 16:01:26;;;;;;;;;;;;;;;;;;5054557;28;20263;-26
2023/03/12 16:03:52;;;;;;;;;;;;;;;;;;5054761;28;19971;-26
2023/03/12 16:06:18;;;;;;;;;;;;;;;;;;5054393;28;20272;-26
2023/03/12 16:08:44;;;;;;;;;;;;;;;;;;5054502;28;19908;-26
2023/03/12 16:11:10;;;;;;;;;;;;;;;;;;5054491;28;20019;-26
2023/03/12 16:13:36;;;;;;;;;;;;;;;;;;5054376;28;20070;-27
2023/03/12 16:16:03;;;;;;;;;;;;;;;;;;5054339;28;20340;-28
2023/03/12 16:18:29;;;;;;;;;;;;;;;;;;5054647;28;19909;-28
2023/03/12 16:20:55;;;;;;;;;;;;;;;;;;5054272;28;19999;-23
2023/03/12 16:23:21;;;;;;;;;;;;;;;;;;5054321;28;19912;-24
2023/03/12 16:25:47;;;;;;;;;;;;;;;;;;5053389;28;20340;-22
2023/03/12 16:28:13;;;;;;;;;;;;;;;;;;5054356;28;19909;-26
2023/03/12 16:30:39;;;;;;;;;;;;;;;;;;5054328;28;20228;-25
2023/03/12 16:33:05;;;;;;;;;;;;;;;;;;5055985;28;20259;-25
2023/03/12 16:35:31;;;;;;;;;;;;;;;;;;5058343;28;19909;-31
2023/03/12 16:37:57;;;;;;;;;;;;;;;;;;5058302;28;20004;-29